Time;durP1;ratioP1;P1;durP2;ratioP2;P2;SDS_P1;SDS_P2;PMS_P1;PMS_P2;Temp;Humidity;BMP_temperature;BMP_pressure;BME280_temperature;BME280_humidity;BME280_pressure;Samples;Min_cycle;Max_cycle;Signal;HPM_P1;HPM_P2
2023/09/20 00:00:10;;;;;;;1.27;0.70;;;25.20;53.30;;;;;;5002343;28;20030;-68
2023/09/20 00:02:40;;;;;;;1.25;0.75;;;25.20;53.30;;;;;;5001987;28;20390;-68
2023/09/20 00:05:12;;;;;;;;;;;25.10;53.20;;;;;;4999941;28;20042;-68
2023/09/20 00:07:38;;;;;;;1.17;0.70;;;25.20;53.30;;;;;;5002385;28;20009;-68
2023/09/20 00:10:04;;;;;;;1.08;0.80;;;25.20;53.30;;;;;;5001103;28;20031;-68
2023/09/20 00:12:30;;;;;;;1.00;0.80;;;25.10;53.20;;;;;;5002261;28;20541;-68
2023/09/20 00:14:55;;;;;;;0.80;0.70;;;25.10;53.20;;;;;;4998987;28;20172;-68
2023/09/20 00:17:22;;;;;;;0.88;0.65;;;25.10;53.70;;;;;;5001612;28;20049;-68
2023/09/20 00:19:48;;;;;;;0.85;0.70;;;25.10;53.30;;;;;;5008266;28;20034;-67
2023/09/20 00:22:15;;;;;;;1.15;0.70;;;25.10;53.20;;;;;;5001968;28;20033;-67
2023/09/20 00:24:40;;;;;;;1.45;0.70;;;25.10;53.20;;;;;;5001978;28;20026;-67
2023/09/20 00:27:08;;;;;;;0.90;0.60;;;25.10;53.30;;;;;;5001384;28;20045;-68
2023/09/20 00:29:34;;;;;;;1.00;0.80;;;25.10;53.30;;;;;;5001740;28;20151;-69
2023/09/20 00:31:59;;;;;;;0.88;0.70;;;25.10;53.30;;;;;;5001926;28;20034;-69
2023/09/20 00:34:26;;;;;;;0.98;0.80;;;25.10;53.20;;;;;;4999604;28;20026;-69
2023/09/20 00:36:51;;;;;;;1.20;0.73;;;25.10;53.20;;;;;;5000672;28;20050;-68
2023/09/20 00:39:17;;;;;;;0.95;0.70;;;25.10;53.30;;;;;;5001339;28;20022;-68
2023/09/20 00:41:43;;;;;;;1.00;0.80;;;25.10;53.20;;;;;;4999730;28;20026;-69
2023/09/20 00:44:08;;;;;;;1.08;0.80;;;25.10;53.30;;;;;;5001523;28;20037;-67
2023/09/20 00:46:35;;;;;;;1.00;0.70;;;25.10;53.20;;;;;;5001097;28;20155;-68
2023/09/20 00:49:03;;;;;;;1.33;0.70;;;25.10;53.20;;;;;;5000566;28;20033;-67
2023/09/20 00:51:29;;;;;;;2.28;0.80;;;25.10;53.20;;;;;;4999992;28;20370;-67
2023/09/20 00:53:57;;;;;;;1.50;0.80;;;25.10;53.20;;;;;;4997695;28;20026;-67
2023/09/20 00:56:23;;;;;;;1.08;0.80;;;25.10;53.20;;;;;;5000663;28;20185;-67
2023/09/20 00:58:52;;;;;;;0.88;0.70;;;25.10;53.20;;;;;;5000223;28;20209;-67
2023/09/20 01:01:18;;;;;;;0.98;0.80;;;25.10;53.20;;;;;;5000795;28;20052;-66
2023/09/20 01:03:45;;;;;;;0.95;0.68;;;25.10;53.20;;;;;;4999542;28;20048;-67
2023/09/20 01:06:15;;;;;;;0.77;0.70;;;25.10;53.20;;;;;;5000483;28;21035;-67
2023/09/20 01:08:41;;;;;;;1.45;0.85;;;25.10;53.20;;;;;;5000684;28;20065;-64
2023/09/20 01:11:07;;;;;;;0.80;0.70;;;25.00;53.20;;;;;;4998224;28;20062;-63
2023/09/20 01:13:33;;;;;;;1.10;0.65;;;25.00;53.20;;;;;;5000913;28;20022;-63
2023/09/20 01:16:01;;;;;;;1.10;0.70;;;25.00;53.20;;;;;;4998912;28;20062;-63
2023/09/20 01:18:28;;;;;;;1.05;0.60;;;25.00;53.20;;;;;;4999395;28;20856;-63
2023/09/20 01:20:54;;;;;;;1.10;0.73;;;25.00;53.10;;;;;;5000346;28;20034;-65
2023/09/20 01:23:20;;;;;;;1.20;0.80;;;25.00;53.20;;;;;;5000284;28;20166;-63
2023/09/20 01:25:46;;;;;;;0.85;0.70;;;25.00;53.10;;;;;;5001110;28;20029;-63
2023/09/20 01:28:13;;;;;;;0.63;0.60;;;25.00;53.70;;;;;;4997896;28;20478;-63
2023/09/20 01:30:41;;;;;;;0.70;0.68;;;25.00;53.20;;;;;;5001435;28;20030;-64
2023/09/20 01:33:08;;;;;;;1.15;0.80;;;25.00;53.20;;;;;;4999970;28;20045;-63
2023/09/20 01:35:35;;;;;;;0.65;0.60;;;25.00;53.10;;;;;;4999709;28;20037;-64
2023/09/20 01:38:06;;;;;;;1.45;0.90;;;25.00;53.20;;;;;;5000605;28;20034;-64
2023/09/20 01:40:35;;;;;;;1.30;0.90;;;25.00;53.20;;;;;;5001073;28;20061;-62
2023/09/20 01:43:11;;;;;;;1.02;0.63;;;25.00;53.20;;;;;;5001144;28;20463;-62
2023/09/20 01:45:37;;;;;;;0.60;0.60;;;25.00;53.20;;;;;;5001597;28;20168;-62
2023/09/20 01:48:10;;;;;;;1.02;0.70;;;25.00;53.20;;;;;;4998761;28;20157;-65
2023/09/20 01:50:36;;;;;;;0.95;0.65;;;25.00;53.20;;;;;;4998821;28;20038;-63
2023/09/20 01:53:08;;;;;;;0.88;0.73;;;25.00;53.20;;;;;;4999935;28;20034;-63
2023/09/20 01:55:37;;;;;;;1.13;0.60;;;25.00;53.20;;;;;;4997718;28;20029;-64
2023/09/20 01:58:05;;;;;;;0.57;0.57;;;24.90;53.20;;;;;;5000834;28;20030;-64
2023/09/20 02:00:40;;;;;;;0.85;0.70;;;24.90;53.20;;;;;;4998269;28;20057;-63
2023/09/20 02:03:19;;;;;;;0.70;0.70;;;24.90;53.20;;;;;;5000700;28;20037;-63
2023/09/20 02:05:47;;;;;;;0.88;0.65;;;24.90;53.20;;;;;;5000493;28;20034;-63
2023/09/20 02:08:13;;;;;;;1.10;0.70;;;24.90;53.20;;;;;;5000332;28;20033;-64
2023/09/20 02:10:39;;;;;;;0.95;0.65;;;24.90;53.20;;;;;;4999648;28;20037;-65
2023/09/20 02:13:06;;;;;;;1.00;0.75;;;24.90;53.20;;;;;;4997985;28;20312;-64
2023/09/20 02:15:36;;;;;;;1.00;0.80;;;24.90;53.20;;;;;;4983442;28;20538;-66
2023/09/20 02:18:05;;;;;;;0.70;0.70;;;24.90;53.20;;;;;;5000926;28;20022;-64
2023/09/20 02:20:36;;;;;;;1.05;0.70;;;24.90;53.20;;;;;;5001243;28;20695;-63
2023/09/20 02:23:03;;;;;;;0.70;0.60;;;24.90;53.20;;;;;;4998536;28;20105;-64
2023/09/20 02:25:29;;;;;;;1.20;0.70;;;24.90;53.20;;;;;;4998948;28;20029;-63
2023/09/20 02:27:59;;;;;;;1.45;0.80;;;24.80;53.20;;;;;;5000120;28;20331;-64
2023/09/20 02:30:35;;;;;;;0.73;0.70;;;24.80;53.20;;;;;;4999409;28;20108;-63
2023/09/20 02:33:06;;;;;;;0.68;0.68;;;24.80;53.10;;;;;;4997416;28;20080;-64
2023/09/20 02:35:32;;;;;;;1.13;0.80;;;24.80;53.20;;;;;;4998486;28;20331;-62
2023/09/20 02:37:59;;;;;;;0.93;0.70;;;24.80;53.20;;;;;;5013092;28;20050;-62
2023/09/20 02:40:29;;;;;;;0.60;0.60;;;24.80;53.20;;;;;;4999384;28;20051;-63
2023/09/20 02:43:00;;;;;;;0.82;0.70;;;24.80;53.20;;;;;;4996697;28;20534;-66
2023/09/20 02:45:30;;;;;;;0.93;0.73;;;24.80;53.20;;;;;;4998497;28;20030;-64
2023/09/20 02:47:57;;;;;;;1.15;0.80;;;24.80;53.20;;;;;;4998168;28;20101;-64
2023/09/20 02:50:23;;;;;;;0.90;0.80;;;24.80;53.20;;;;;;4999358;28;20090;-64
2023/09/20 02:52:50;;;;;;;1.10;0.70;;;24.80;53.20;;;;;;4996693;28;20030;-64
2023/09/20 02:55:19;;;;;;;0.80;0.70;;;24.80;53.20;;;;;;4998256;28;20022;-63
2023/09/20 02:57:45;;;;;;;0.70;0.70;;;24.80;53.20;;;;;;4999942;28;20076;-65
2023/09/20 03:00:16;;;;;;;0.90;0.80;;;24.80;53.20;;;;;;4998611;28;20038;-65
2023/09/20 03:02:46;;;;;;;0.77;0.68;;;24.80;53.20;;;;;;4999748;28;20130;-65
2023/09/20 03:05:17;;;;;;;1.33;0.80;;;24.80;53.20;;;;;;4997677;28;20037;-64
2023/09/20 03:07:47;;;;;;;0.98;0.70;;;24.80;53.20;;;;;;4998246;28;20022;-64
2023/09/20 03:10:14;;;;;;;1.17;0.75;;;24.80;53.20;;;;;;4998380;28;20049;-63
2023/09/20 03:12:45;;;;;;;1.00;0.70;;;24.80;53.20;;;;;;4997604;28;20030;-64
2023/09/20 03:15:16;;;;;;;1.50;0.90;;;24.70;53.20;;;;;;5006076;28;20030;-64
2023/09/20 03:17:43;;;;;;;0.98;0.70;;;24.70;53.20;;;;;;4999602;28;20368;-64
2023/09/20 03:20:16;;;;;;;0.85;0.70;;;24.70;53.20;;;;;;4998144;28;20121;-64
2023/09/20 03:22:42;;;;;;;1.70;0.75;;;24.70;53.20;;;;;;4997746;28;20493;-64
2023/09/20 03:25:14;;;;;;;0.77;0.60;;;24.80;53.20;;;;;;4998916;28;20068;-64
2023/09/20 03:27:43;;;;;;;0.75;0.60;;;24.70;53.20;;;;;;4997441;28;20528;-67
2023/09/20 03:30:28;;;;;;;0.70;0.70;;;24.70;53.20;;;;;;4998320;28;20513;-67
2023/09/20 03:32:56;;;;;;;0.75;0.60;;;24.70;53.20;;;;;;4998816;28;20099;-67
2023/09/20 03:35:21;;;;;;;0.90;0.70;;;24.70;53.20;;;;;;4996891;28;20084;-67
2023/09/20 03:37:47;;;;;;;0.60;0.60;;;24.70;53.20;;;;;;4998346;28;20390;-67
2023/09/20 03:40:17;;;;;;;0.88;0.70;;;24.70;53.20;;;;;;4998247;28;20022;-67
2023/09/20 03:42:44;;;;;;;0.88;0.68;;;24.70;53.20;;;;;;4997024;28;20465;-67
2023/09/20 03:45:11;;;;;;;0.88;0.70;;;24.70;53.20;;;;;;4998416;28;20027;-67
2023/09/20 03:47:45;;;;;;;0.90;0.60;;;24.70;53.20;;;;;;4998711;28;20868;-67
2023/09/20 03:50:12;;;;;;;1.10;0.85;;;24.60;53.10;;;;;;4995703;28;20030;-67
2023/09/20 03:52:38;;;;;;;0.60;0.60;;;24.60;53.10;;;;;;4997189;28;20750;-67
2023/09/20 03:55:05;;;;;;;0.57;0.57;;;24.70;53.20;;;;;;4998202;28;20157;-66
2023/09/20 03:57:31;;;;;;;0.98;0.75;;;24.60;53.10;;;;;;4997593;28;20033;-66
2023/09/20 04:00:07;;;;;;;0.60;0.60;;;24.70;53.20;;;;;;4997361;28;20398;-66
2023/09/20 04:02:33;;;;;;;0.95;0.70;;;24.60;53.10;;;;;;4999740;28;20497;-66
2023/09/20 04:05:07;;;;;;;0.95;0.68;;;24.60;53.10;;;;;;4996794;28;20113;-65
2023/09/20 04:07:32;;;;;;;0.98;0.70;;;24.60;53.10;;;;;;4998806;28;20030;-65
2023/09/20 04:09:58;;;;;;;0.50;0.50;;;24.60;53.10;;;;;;5000506;28;20509;-66
2023/09/20 04:12:24;;;;;;;1.17;0.70;;;24.60;53.10;;;;;;5006041;28;20084;-66
2023/09/20 04:14:53;;;;;;;1.83;0.80;;;24.60;53.10;;;;;;4997233;28;20034;-66
2023/09/20 04:17:18;;;;;;;0.70;0.60;;;24.60;53.10;;;;;;4998215;28;20026;-65
2023/09/20 04:19:44;;;;;;;1.35;0.80;;;24.60;53.10;;;;;;4997329;28;20073;-65
2023/09/20 04:22:10;;;;;;;0.77;0.70;;;24.60;53.10;;;;;;4997559;28;20026;-65
2023/09/20 04:24:36;;;;;;;0.95;0.65;;;24.60;53.10;;;;;;4997716;28;20034;-65
2023/09/20 04:27:05;;;;;;;1.08;0.70;;;24.60;53.10;;;;;;4996521;28;20405;-65
2023/09/20 04:29:31;;;;;;;1.00;0.70;;;24.60;53.10;;;;;;5001156;28;20026;-67
2023/09/20 04:31:57;;;;;;;0.85;0.70;;;24.60;53.10;;;;;;5000932;28;20045;-65
2023/09/20 04:34:23;;;;;;;0.70;0.70;;;24.60;53.10;;;;;;5000575;28;20030;-65
2023/09/20 04:36:51;;;;;;;1.10;0.80;;;24.50;53.00;;;;;;5001626;28;20026;-65
2023/09/20 04:39:17;;;;;;;0.70;0.70;;;24.50;53.00;;;;;;5003928;28;20054;-62
2023/09/20 04:41:43;;;;;;;0.73;0.65;;;24.50;53.00;;;;;;4999792;28;20077;-63
2023/09/20 04:44:08;;;;;;;1.05;0.80;;;24.50;53.00;;;;;;5000581;28;20408;-62
2023/09/20 04:46:39;;;;;;;1.02;0.70;;;24.50;53.00;;;;;;5001961;28;20120;-62
2023/09/20 04:49:05;;;;;;;0.98;0.70;;;24.50;53.00;;;;;;5002693;28;20398;-62
2023/09/20 04:51:32;;;;;;;0.98;0.80;;;24.50;53.00;;;;;;5000822;28;20611;-61
2023/09/20 04:53:58;;;;;;;2.22;0.80;;;24.50;53.00;;;;;;4999973;28;20041;-63
2023/09/20 04:56:24;;;;;;;1.20;0.70;;;24.50;53.00;;;;;;5002877;28;20375;-62
2023/09/20 04:58:50;;;;;;;1.02;0.80;;;24.50;53.00;;;;;;4999983;28;20030;-63
2023/09/20 05:01:17;;;;;;;0.70;0.70;;;24.50;52.90;;;;;;4999706;28;21016;-62
2023/09/20 05:03:43;;;;;;;0.70;0.60;;;24.50;52.90;;;;;;4998902;28;20026;-61
2023/09/20 05:06:09;;;;;;;0.90;0.70;;;24.50;52.90;;;;;;5000537;28;20032;-62
2023/09/20 05:08:35;;;;;;;1.00;0.70;;;24.50;52.90;;;;;;5000482;28;20033;-63
2023/09/20 05:11:03;;;;;;;1.30;0.80;;;24.50;52.90;;;;;;5001464;28;20061;-62
2023/09/20 05:13:28;;;;;;;1.50;0.80;;;24.50;52.90;;;;;;4999376;28;20092;-61
2023/09/20 05:15:54;;;;;;;1.05;0.80;;;24.50;52.90;;;;;;5001130;28;20038;-62
2023/09/20 05:18:20;;;;;;;1.92;0.75;;;24.50;52.90;;;;;;5000082;28;20029;-61
2023/09/20 05:20:45;;;;;;;1.33;0.80;;;24.40;52.80;;;;;;5000005;28;20046;-63
2023/09/20 05:23:12;;;;;;;0.65;0.65;;;24.50;52.90;;;;;;5000240;28;20142;-62
2023/09/20 05:25:37;;;;;;;1.00;0.70;;;24.50;52.90;;;;;;4998934;28;20390;-61
2023/09/20 05:28:04;;;;;;;1.05;0.75;;;24.50;52.90;;;;;;5000561;28;20026;-61
2023/09/20 05:30:30;;;;;;;1.35;0.90;;;24.40;52.80;;;;;;4999916;28;20529;-61
2023/09/20 05:32:59;;;;;;;1.00;0.70;;;24.40;52.80;;;;;;4998952;28;20029;-60
2023/09/20 05:35:27;;;;;;;1.63;0.82;;;24.40;52.80;;;;;;5000379;28;20022;-62
2023/09/20 05:37:53;;;;;;;0.97;0.70;;;24.50;52.90;;;;;;5002001;28;20022;-65
2023/09/20 05:40:18;;;;;;;1.35;0.80;;;24.40;52.80;;;;;;5001568;28;20523;-64
2023/09/20 05:42:50;;;;;;;1.13;0.80;;;24.40;52.80;;;;;;5001251;28;20026;-64
2023/09/20 05:45:19;;;;;;;0.70;0.70;;;24.40;52.80;;;;;;4999791;28;20034;-64
2023/09/20 05:47:45;;;;;;;1.17;0.90;;;24.40;52.80;;;;;;5000934;28;20034;-64
2023/09/20 05:50:12;;;;;;;2.10;0.70;;;24.40;52.80;;;;;;4998321;28;20482;-64
2023/09/20 05:52:43;;;;;;;0.80;0.70;;;24.40;52.80;;;;;;4999455;28;20038;-64
2023/09/20 05:55:13;;;;;;;1.00;0.70;;;24.40;52.80;;;;;;4997914;28;20018;-64
2023/09/20 05:57:43;;;;;;;1.10;0.70;;;24.40;52.80;;;;;;4998937;28;20057;-64
2023/09/20 06:00:18;;;;;;;1.52;0.90;;;24.40;52.80;;;;;;5007119;28;20038;-64
2023/09/20 06:02:44;;;;;;;0.70;0.70;;;24.40;53.40;;;;;;4999601;28;20034;-64
2023/09/20 06:05:16;;;;;;;1.40;1.00;;;24.40;52.80;;;;;;4997306;28;20474;-64
2023/09/20 06:07:44;;;;;;;1.35;0.90;;;24.40;52.80;;;;;;5000554;28;20030;-64
2023/09/20 06:10:13;;;;;;;1.27;0.90;;;24.40;52.80;;;;;;5000155;28;20470;-63
2023/09/20 06:12:40;;;;;;;1.50;0.73;;;24.40;52.80;;;;;;4998095;28;20520;-64
2023/09/20 06:15:13;;;;;;;1.27;0.80;;;24.30;52.80;;;;;;4998201;28;20057;-64
2023/09/20 06:17:39;;;;;;;1.98;0.85;;;24.30;52.80;;;;;;5000141;28;20169;-64
2023/09/20 06:20:08;;;;;;;0.85;0.80;;;24.30;52.80;;;;;;4998496;28;20109;-64
2023/09/20 06:22:34;;;;;;;1.35;0.88;;;24.30;52.80;;;;;;4999471;28;20030;-64
2023/09/20 06:25:01;;;;;;;1.30;0.90;;;24.30;52.80;;;;;;5000225;28;20088;-64
2023/09/20 06:27:30;;;;;;;1.40;0.90;;;24.30;52.80;;;;;;5000644;28;20045;-64
2023/09/20 06:29:56;;;;;;;1.02;0.80;;;24.30;52.80;;;;;;4999315;28;20023;-64
2023/09/20 06:32:22;;;;;;;1.25;0.90;;;24.30;52.80;;;;;;4998368;28;20402;-64
2023/09/20 06:34:47;;;;;;;1.33;0.80;;;24.30;52.80;;;;;;4998048;28;20026;-64
2023/09/20 06:37:13;;;;;;;1.05;0.70;;;24.30;52.80;;;;;;4996956;28;20029;-64
2023/09/20 06:39:39;;;;;;;0.95;0.77;;;24.30;52.80;;;;;;4997731;28;20026;-64
2023/09/20 06:42:05;;;;;;;0.80;0.70;;;24.30;52.80;;;;;;4999390;28;20022;-64
2023/09/20 06:44:38;;;;;;;1.00;0.75;;;24.30;52.80;;;;;;5000057;28;20117;-65
2023/09/20 06:47:06;;;;;;;1.58;1.00;;;24.30;52.80;;;;;;4999312;28;20026;-64
2023/09/20 06:49:32;;;;;;;1.42;0.98;;;24.30;52.80;;;;;;4999306;28;20106;-64
2023/09/20 06:52:01;;;;;;;1.52;1.00;;;24.30;52.80;;;;;;4997460;28;20458;-64
2023/09/20 06:54:28;;;;;;;1.10;0.70;;;24.30;52.80;;;;;;4996403;28;20030;-64
2023/09/20 06:56:57;;;;;;;1.80;0.90;;;24.30;52.80;;;;;;4999958;28;20215;-64
2023/09/20 06:59:23;;;;;;;1.20;0.82;;;24.30;53.10;;;;;;4997537;28;20022;-67
2023/09/20 07:01:50;;;;;;;0.80;0.77;;;24.30;52.80;;;;;;4998140;28;20368;-66
2023/09/20 07:04:16;;;;;;;1.35;0.82;;;24.30;52.80;;;;;;4995959;28;20158;-66
2023/09/20 07:06:42;;;;;;;0.90;0.75;;;24.20;52.80;;;;;;4997372;28;20023;-67
2023/09/20 07:09:09;;;;;;;1.25;0.70;;;24.20;52.80;;;;;;4997795;28;20038;-67
2023/09/20 07:11:34;;;;;;;1.58;0.90;;;24.20;52.80;;;;;;4996807;28;20033;-66
2023/09/20 07:14:05;;;;;;;1.27;0.80;;;24.20;52.80;;;;;;4998524;28;20030;-67
2023/09/20 07:16:33;;;;;;;1.30;0.80;;;24.20;52.80;;;;;;5001310;28;20022;-67
2023/09/20 07:19:04;;;;;;;1.00;0.77;;;24.20;52.80;;;;;;4997429;28;20522;-67
2023/09/20 07:21:29;;;;;;;1.23;0.75;;;24.20;52.80;;;;;;4998109;28;20027;-66
2023/09/20 07:23:59;;;;;;;1.45;0.90;;;24.20;52.80;;;;;;4999103;28;20084;-66
2023/09/20 07:26:26;;;;;;;1.38;0.85;;;24.20;52.90;;;;;;4998646;28;20027;-67
2023/09/20 07:28:51;;;;;;;1.30;0.80;;;24.20;52.90;;;;;;4999074;28;20037;-67
2023/09/20 07:31:21;;;;;;;1.23;0.80;;;24.20;52.90;;;;;;5000927;28;20026;-66
2023/09/20 07:33:48;;;;;;;1.42;0.90;;;24.20;52.80;;;;;;4997036;28;20037;-67
2023/09/20 07:36:15;;;;;;;1.17;0.80;;;24.20;53.40;;;;;;4997495;28;20038;-66
2023/09/20 07:38:40;;;;;;;1.60;0.90;;;24.20;52.90;;;;;;4998966;28;20116;-66
2023/09/20 07:41:17;;;;;;;1.30;0.80;;;24.20;52.90;;;;;;4998441;28;20117;-66
2023/09/20 07:43:44;;;;;;;1.27;0.80;;;24.20;52.90;;;;;;5000018;28;20367;-66
2023/09/20 07:46:13;;;;;;;1.10;0.85;;;24.20;52.90;;;;;;4996897;28;20038;-66
2023/09/20 07:48:50;;;;;;;1.70;1.00;;;24.20;52.90;;;;;;4997515;28;20105;-66
2023/09/20 07:51:19;;;;;;;1.17;0.70;;;24.20;52.90;;;;;;4996843;28;20065;-66
2023/09/20 07:53:49;;;;;;;1.27;0.90;;;24.20;52.90;;;;;;4997587;28;20121;-66
2023/09/20 07:56:14;;;;;;;0.98;0.80;;;24.10;52.90;;;;;;4998690;28;20042;-66
2023/09/20 07:58:40;;;;;;;1.20;0.80;;;24.10;52.90;;;;;;4999325;28;20448;-62
2023/09/20 08:01:12;;;;;;;1.50;1.00;;;24.10;52.90;;;;;;4999920;28;20476;-61
2023/09/20 08:03:39;;;;;;;1.80;0.82;;;24.10;52.90;;;;;;5000858;28;20030;-63
2023/09/20 08:06:09;;;;;;;1.00;0.90;;;24.10;52.90;;;;;;4998114;28;20069;-61
2023/09/20 08:08:37;;;;;;;1.30;0.80;;;24.10;52.90;;;;;;5000780;28;20030;-67
2023/09/20 08:11:03;;;;;;;0.90;0.75;;;24.10;52.90;;;;;;5001903;28;20030;-66
2023/09/20 08:13:29;;;;;;;0.70;0.63;;;24.10;52.90;;;;;;5016977;28;20474;-66
2023/09/20 08:15:55;;;;;;;1.17;0.80;;;24.10;52.90;;;;;;5001230;28;20095;-66
2023/09/20 08:21:05;;;;;;;1.23;0.80;;;24.10;52.90;;;;;;4999868;28;20406;-66
2023/09/20 09:02:16;;;;;;;1.48;1.00;;;24.10;53.10;;;;;;5002262;28;20064;-66
2023/09/20 09:04:49;;;;;;;1.00;0.70;;;24.00;53.10;;;;;;5000655;28;20034;-66
2023/09/20 09:07:16;;;;;;;1.50;0.90;;;24.10;53.10;;;;;;4999245;28;20120;-67
2023/09/20 09:09:41;;;;;;;1.67;1.00;;;24.00;53.10;;;;;;5000602;28;20033;-64
2023/09/20 09:12:09;;;;;;;1.02;0.80;;;24.00;53.10;;;;;;5002337;28;20343;-64
2023/09/20 09:14:38;;;;;;;1.48;0.77;;;24.00;53.10;;;;;;4997101;28;20038;-64
2023/09/20 09:17:06;;;;;;;0.90;0.80;;;24.00;53.10;;;;;;4999159;28;20029;-64
2023/09/20 09:19:33;;;;;;;1.15;0.90;;;24.00;53.10;;;;;;4998935;28;20053;-66
2023/09/20 09:22:00;;;;;;;1.00;0.80;;;24.10;53.20;;;;;;4998036;28;20042;-67
2023/09/20 09:24:29;;;;;;;1.00;0.70;;;24.00;53.10;;;;;;4999716;28;20025;-67
2023/09/20 09:27:06;;;;;;;0.90;0.70;;;24.00;53.10;;;;;;4999562;28;20516;-66
2023/09/20 09:29:32;;;;;;;1.08;0.70;;;24.00;53.10;;;;;;4999962;28;20493;-66
2023/09/20 09:32:01;;;;;;;0.93;0.70;;;24.00;53.70;;;;;;4998959;28;20037;-66
2023/09/20 09:34:27;;;;;;;1.08;0.70;;;24.00;53.20;;;;;;5001233;28;20781;-66
2023/09/20 09:36:55;;;;;;;0.70;0.68;;;24.00;53.20;;;;;;4998921;28;20065;-66
2023/09/20 09:39:21;;;;;;;1.63;1.02;;;24.00;53.20;;;;;;5001843;28;20121;-67
2023/09/20 09:41:46;;;;;;;0.70;0.70;;;24.00;53.20;;;;;;5000691;28;20112;-66
2023/09/20 09:44:16;;;;;;;1.17;0.70;;;24.00;53.20;;;;;;5000201;28;20602;-66
2023/09/20 09:46:43;;;;;;;0.95;0.75;;;24.00;53.20;;;;;;5000167;28;20062;-67
2023/09/20 09:49:18;;;;;;;0.98;0.70;;;24.10;53.80;;;;;;4999599;28;20059;-67
2023/09/20 09:51:52;;;;;;;1.20;0.90;;;24.00;53.20;;;;;;4999153;28;20041;-66
2023/09/20 09:54:19;;;;;;;1.23;0.80;;;24.00;53.20;;;;;;4999900;28;20490;-67
2023/09/20 09:56:46;;;;;;;1.13;0.80;;;24.00;53.20;;;;;;4998980;28;20055;-66
2023/09/20 09:59:12;;;;;;;0.93;0.73;;;24.00;53.20;;;;;;5015217;28;20553;-66
2023/09/20 10:01:39;;;;;;;1.10;0.70;;;24.00;53.70;;;;;;5000082;28;20137;-67
2023/09/20 10:04:07;;;;;;;1.38;0.70;;;24.00;53.20;;;;;;4999491;28;20088;-66
2023/09/20 10:06:37;;;;;;;0.93;0.75;;;24.00;53.30;;;;;;4998591;28;20906;-67
2023/09/20 10:09:10;;;;;;;1.13;0.82;;;24.00;53.30;;;;;;4998598;28;20034;-67
2023/09/20 10:11:37;;;;;;;1.00;0.77;;;24.00;53.30;;;;;;4999934;28;20068;-67
2023/09/20 10:14:08;;;;;;;0.70;0.65;;;24.00;53.30;;;;;;5000806;28;20096;-66
2023/09/20 10:16:35;;;;;;;1.02;0.68;;;24.00;53.30;;;;;;4999908;28;20026;-67
2023/09/20 10:19:01;;;;;;;1.00;0.70;;;24.00;53.80;;;;;;4999931;28;20505;-65
2023/09/20 10:21:30;;;;;;;0.80;0.70;;;24.00;53.30;;;;;;4998325;28;20062;-64
2023/09/20 10:24:00;;;;;;;0.80;0.70;;;24.00;53.30;;;;;;4996685;28;20045;-65
2023/09/20 10:26:26;;;;;;;1.20;0.77;;;24.00;53.30;;;;;;4999766;28;20061;-65
2023/09/20 10:29:11;;;;;;;1.45;0.90;;;24.00;53.80;;;;;;4999306;28;20022;-65
2023/09/20 10:31:39;;;;;;;1.15;0.90;;;24.00;53.30;;;;;;4998788;28;20069;-65
2023/09/20 10:34:05;;;;;;;1.85;0.70;;;24.00;53.30;;;;;;4998880;28;20026;-65
2023/09/20 10:36:31;;;;;;;1.00;0.68;;;24.00;53.30;;;;;;4998366;28;20117;-64
2023/09/20 10:39:18;;;;;;;0.88;0.70;;;24.00;53.30;;;;;;4997652;28;21035;-65
2023/09/20 10:41:45;;;;;;;2.05;0.90;;;24.00;53.30;;;;;;4998956;28;20109;-65
2023/09/20 10:44:31;;;;;;;1.50;0.80;;;24.00;53.30;;;;;;5000229;28;20037;-65
2023/09/20 10:47:01;;;;;;;1.25;0.80;;;24.00;53.30;;;;;;4998154;28;20360;-65
2023/09/20 10:49:49;;;;;;;1.02;0.70;;;24.00;53.30;;;;;;4999135;28;20563;-65
2023/09/20 10:52:33;;;;;;;1.13;0.90;;;24.00;53.40;;;;;;4997586;28;20038;-65
2023/09/20 10:55:22;;;;;;;1.00;0.90;;;24.00;53.40;;;;;;4998643;28;20120;-64
2023/09/20 10:57:50;;;;;;;1.20;0.80;;;24.00;53.40;;;;;;4999207;28;20849;-64
2023/09/20 11:00:25;;;;;;;1.15;0.80;;;24.00;53.40;;;;;;4998296;28;20482;-64
2023/09/20 11:02:54;;;;;;;0.90;0.80;;;24.00;53.40;;;;;;4997138;28;20070;-65
2023/09/20 11:05:21;;;;;;;0.82;0.70;;;24.00;53.40;;;;;;4997590;28;20026;-65
2023/09/20 11:07:47;;;;;;;1.20;0.80;;;24.00;53.40;;;;;;4996593;28;24571;-65
2023/09/20 11:10:19;;;;;;;0.68;0.60;;;24.00;53.40;;;;;;5000019;28;20017;-65
2023/09/20 11:12:44;;;;;;;1.02;0.80;;;24.00;53.40;;;;;;4997734;28;20522;-64
2023/09/20 11:15:11;;;;;;;0.88;0.75;;;24.00;53.40;;;;;;4999390;28;20120;-65
2023/09/20 11:17:36;;;;;;;1.40;0.80;;;24.00;53.40;;;;;;4998145;28;20517;-64
2023/09/20 11:20:06;;;;;;;0.80;0.70;;;24.00;53.40;;;;;;4997657;28;20025;-65
2023/09/20 11:22:31;;;;;;;;;;;24.00;53.40;;;;;;4995701;28;20037;-65
2023/09/20 11:24:57;;;;;;;1.63;0.90;;;24.00;53.40;;;;;;4997815;28;19950;-65
2023/09/20 11:27:24;;;;;;;0.90;0.80;;;24.00;53.40;;;;;;4996089;28;20044;-65
2023/09/20 11:29:50;;;;;;;1.13;0.75;;;24.00;53.40;;;;;;4998755;28;20037;-64
2023/09/20 11:32:21;;;;;;;1.15;0.75;;;24.00;53.40;;;;;;4998258;28;20556;-65
2023/09/20 11:34:49;;;;;;;1.88;0.90;;;24.00;53.40;;;;;;4997931;28;20105;-65
2023/09/20 11:37:19;;;;;;;0.70;0.70;;;24.10;53.50;;;;;;4996265;28;20038;-65
2023/09/20 11:39:47;;;;;;;1.20;0.82;;;24.00;53.40;;;;;;4999578;28;20093;-61
2023/09/20 11:42:24;;;;;;;0.90;0.70;;;24.10;53.50;;;;;;5002720;28;20031;-61
2023/09/20 11:45:03;;;;;;;1.23;0.80;;;24.10;53.50;;;;;;5001365;28;20029;-62
2023/09/20 11:47:34;;;;;;;1.00;0.73;;;24.10;53.50;;;;;;5001906;28;20022;-62
2023/09/20 11:50:00;;;;;;;0.80;0.70;;;24.10;53.50;;;;;;5001737;28;20033;-63
2023/09/20 11:52:27;;;;;;;0.90;0.70;;;24.10;53.50;;;;;;5000014;28;20042;-61
2023/09/20 11:54:58;;;;;;;1.08;0.98;;;24.10;53.50;;;;;;5001375;28;20466;-62
2023/09/20 11:57:25;;;;;;;1.58;0.80;;;24.00;53.50;;;;;;5001878;28;20065;-63
2023/09/20 11:59:52;;;;;;;0.80;0.77;;;24.10;53.70;;;;;;5002911;28;20473;-61
2023/09/20 12:02:18;;;;;;;0.82;0.70;;;24.10;53.60;;;;;;5000895;28;20029;-64
2023/09/20 12:04:45;;;;;;;1.13;0.70;;;24.10;53.50;;;;;;5002073;28;20401;-64
2023/09/20 12:07:10;;;;;;;0.90;0.70;;;24.10;53.60;;;;;;5001062;28;20041;-62
2023/09/20 12:09:37;;;;;;;1.13;0.80;;;24.10;53.50;;;;;;5001104;28;20108;-62
2023/09/20 12:12:05;;;;;;;1.75;0.90;;;24.10;53.60;;;;;;5001105;28;20148;-63
2023/09/20 12:14:33;;;;;;;1.85;1.00;;;24.10;53.60;;;;;;5001749;28;20034;-63
2023/09/20 12:16:59;;;;;;;2.05;1.05;;;24.10;53.60;;;;;;5000229;28;20029;-65
2023/09/20 12:19:25;;;;;;;2.63;1.10;;;24.10;53.60;;;;;;5000739;28;20039;-63
2023/09/20 12:21:51;;;;;;;2.15;1.00;;;24.10;53.60;;;;;;5002767;28;20027;-63
2023/09/20 12:24:17;;;;;;;2.15;1.00;;;24.10;53.60;;;;;;5000321;28;20397;-63
2023/09/20 12:26:42;;;;;;;1.17;0.80;;;24.10;53.60;;;;;;5002492;28;20033;-63
2023/09/20 12:29:08;;;;;;;2.00;1.00;;;24.10;53.60;;;;;;5001277;28;20049;-64
2023/09/20 12:31:34;;;;;;;2.10;1.00;;;24.10;53.60;;;;;;5001473;28;20371;-62
2023/09/20 12:34:03;;;;;;;1.73;0.95;;;24.10;53.60;;;;;;5000196;28;20076;-64
2023/09/20 12:36:29;;;;;;;2.40;1.10;;;24.10;53.60;;;;;;4999451;28;20026;-65
2023/09/20 12:38:56;;;;;;;2.03;1.00;;;24.10;53.60;;;;;;4999418;28;20311;-64
2023/09/20 12:41:24;;;;;;;1.70;0.90;;;24.10;53.60;;;;;;5001286;28;20029;-64
2023/09/20 12:43:50;;;;;;;2.17;1.00;;;24.10;53.60;;;;;;5001305;28;20548;-64
2023/09/20 12:46:16;;;;;;;2.03;1.00;;;24.10;53.60;;;;;;5000428;28;20022;-65
2023/09/20 12:48:44;;;;;;;1.42;0.80;;;24.10;53.50;;;;;;5000199;28;20023;-67
2023/09/20 12:51:13;;;;;;;1.33;0.90;;;24.10;53.50;;;;;;5000458;28;20085;-61
2023/09/20 12:53:39;;;;;;;2.88;1.20;;;24.10;53.50;;;;;;4998273;28;20534;-61
2023/09/20 12:56:07;;;;;;;2.08;0.93;;;24.10;53.50;;;;;;5001619;28;20115;-61
2023/09/20 12:58:33;;;;;;;2.42;1.10;;;24.10;53.50;;;;;;4999940;28;20026;-62
2023/09/20 13:00:59;;;;;;;1.40;0.85;;;24.10;53.50;;;;;;5001713;28;20049;-62
2023/09/20 13:03:28;;;;;;;2.60;0.82;;;24.10;53.50;;;;;;5002215;28;20436;-63
2023/09/20 13:05:54;;;;;;;2.10;1.10;;;24.10;53.50;;;;;;5000350;28;20030;-62
2023/09/20 13:08:21;;;;;;;2.10;0.90;;;24.10;53.50;;;;;;5001141;28;20397;-62
2023/09/20 13:10:50;;;;;;;1.92;0.90;;;24.10;53.50;;;;;;5000686;28;20030;-61
2023/09/20 13:13:16;;;;;;;1.48;0.90;;;24.10;53.50;;;;;;5000012;28;20018;-62
2023/09/20 13:15:42;;;;;;;1.92;1.08;;;24.10;53.40;;;;;;5001914;28;20034;-61
2023/09/20 13:18:10;;;;;;;1.38;0.90;;;24.10;53.40;;;;;;4999093;28;20033;-61
2023/09/20 13:20:37;;;;;;;1.80;0.90;;;24.10;53.50;;;;;;4998898;28;20135;-63
2023/09/20 13:23:04;;;;;;;1.67;1.00;;;24.10;53.40;;;;;;5000896;28;20470;-62
2023/09/20 13:25:31;;;;;;;1.52;0.90;;;24.10;53.50;;;;;;4999185;28;20500;-61
2023/09/20 13:27:57;;;;;;;1.55;0.90;;;24.10;53.50;;;;;;5014305;28;20513;-61
2023/09/20 13:30:23;;;;;;;1.35;0.90;;;24.10;53.50;;;;;;5002498;28;20036;-61
2023/09/20 13:32:49;;;;;;;1.92;1.00;;;24.10;53.50;;;;;;5001451;28;20025;-61